createdAt,value
2023-05-11T00:02:15.567Z,5.33
2023-05-11T00:04:42.576Z,6.73
2023-05-11T00:07:09.407Z,4.37
2023-05-11T00:09:38.507Z,6.13
2023-05-11T00:12:05.726Z,6.87
2023-05-11T00:14:32.508Z,5.33
2023-05-11T00:16:59.283Z,7.37
2023-05-11T00:19:26.142Z,7.83
2023-05-11T00:21:52.946Z,6.60
2023-05-11T00:24:19.705Z,6.27
2023-05-11T00:26:46.413Z,7.60
2023-05-11T00:29:13.206Z,8.33
2023-05-11T00:31:40.014Z,5.70
2023-05-11T00:34:07.007Z,8.07
2023-05-11T00:36:33.968Z,8.00
2023-05-11T00:39:00.745Z,6.10
2023-05-11T00:41:27.594Z,5.10
2023-05-11T00:43:54.328Z,7.73
2023-05-11T00:46:21.544Z,6.33
2023-05-11T00:48:48.564Z,7.47
2023-05-11T00:51:15.472Z,8.07
2023-05-11T00:53:42.347Z,7.03
2023-05-11T00:56:09.313Z,7.23
2023-05-11T00:58:37.182Z,6.97
2023-05-11T01:01:05.208Z,7.70
2023-05-11T01:03:34.264Z,6.33
2023-05-11T01:06:13.099Z,7.50
2023-05-11T01:08:52.891Z,8.73
2023-05-11T01:11:33.217Z,7.97
2023-05-11T01:14:10.359Z,6.70
2023-05-11T01:16:41.453Z,6.47
2023-05-11T01:19:12.708Z,8.70
2023-05-11T01:21:40.875Z,7.03
2023-05-11T01:24:27.134Z,5.93
2023-05-11T01:27:06.904Z,8.50
2023-05-11T01:30:05.751Z,7.53
2023-05-11T01:32:36.933Z,6.37
2023-05-11T01:35:12.209Z,6.93
2023-05-11T01:37:45.306Z,6.27
2023-05-11T01:40:18.933Z,8.20
2023-05-11T01:42:49.010Z,6.27
2023-05-11T01:45:17.804Z,7.87
2023-05-11T01:47:48.790Z,8.43
2023-05-11T01:50:19.088Z,7.73
2023-05-11T01:52:47.984Z,6.60
2023-05-11T01:55:17.612Z,7.70
2023-05-11T01:57:45.327Z,10.47
2023-05-11T02:00:13.016Z,7.33
2023-05-11T02:02:40.750Z,6.80
2023-05-11T02:05:08.551Z,8.70
2023-05-11T02:07:38.039Z,9.77
2023-05-11T02:10:05.401Z,7.27
2023-05-11T02:12:34.316Z,8.90
2023-05-11T02:15:03.229Z,10.47
2023-05-11T02:17:31.856Z,9.33
2023-05-11T02:20:01.368Z,8.03
2023-05-11T02:22:29.539Z,9.67
2023-05-11T02:24:56.798Z,8.30
2023-05-11T02:27:24.389Z,6.53
2023-05-11T02:29:51.213Z,9.90
2023-05-11T02:32:21.808Z,9.97
2023-05-11T02:34:58.284Z,8.63
2023-05-11T02:37:27.099Z,9.00
2023-05-11T02:40:00.869Z,7.67
2023-05-11T02:42:31.067Z,7.17
2023-05-11T02:45:17.817Z,6.03
2023-05-11T02:47:56.720Z,8.57
2023-05-11T02:50:25.739Z,7.07
2023-05-11T02:52:55.921Z,8.20
2023-05-11T02:55:23.625Z,8.93
2023-05-11T02:57:50.653Z,9.73
2023-05-11T03:00:18.059Z,7.17
2023-05-11T03:02:45.390Z,7.70
2023-05-11T03:05:12.314Z,8.10
2023-05-11T03:07:39.207Z,7.60
2023-05-11T03:10:08.367Z,5.17
2023-05-11T03:12:35.511Z,5.90
2023-05-11T03:15:04.005Z,8.83
2023-05-11T03:17:31.878Z,6.67
2023-05-11T03:20:03.427Z,7.77
2023-05-11T03:22:31.710Z,6.13
2023-05-11T03:24:59.251Z,6.67
2023-05-11T03:27:27.402Z,5.30
2023-05-11T03:29:55.771Z,5.93
2023-05-11T03:32:22.952Z,5.83
2023-05-11T03:34:49.979Z,8.23
2023-05-11T03:37:19.209Z,6.37
2023-05-11T03:39:52.408Z,7.67
2023-05-11T03:42:21.194Z,7.47
2023-05-11T03:44:50.732Z,9.37
2023-05-11T03:47:18.726Z,10.00
2023-05-11T03:49:46.316Z,8.23
2023-05-11T03:52:13.760Z,12.33
2023-05-11T03:54:42.768Z,8.07
2023-05-11T03:57:10.870Z,10.03
2023-05-11T03:59:39.861Z,5.90
2023-05-11T04:02:08.109Z,7.00
2023-05-11T04:04:35.071Z,6.57
2023-05-11T04:07:01.890Z,7.57
2023-05-11T04:09:28.837Z,7.43
2023-05-11T04:11:55.668Z,5.53
2023-05-11T04:14:22.453Z,5.53
2023-05-11T04:16:50.310Z,8.03
2023-05-11T04:19:17.063Z,7.43
2023-05-11T04:21:43.869Z,6.70
2023-05-11T04:24:10.686Z,7.27
2023-05-11T04:26:37.405Z,9.07
2023-05-11T04:29:05.087Z,6.53
2023-05-11T04:31:32.251Z,8.67
2023-05-11T04:33:59.193Z,6.60
2023-05-11T04:36:26.096Z,7.63
2023-05-11T04:38:53.383Z,8.73
2023-05-11T04:41:20.783Z,5.43
2023-05-11T04:43:47.559Z,5.13
2023-05-11T04:46:14.401Z,6.87
2023-05-11T04:48:41.621Z,6.87
2023-05-11T04:51:08.411Z,8.17
2023-05-11T04:53:35.197Z,6.77
2023-05-11T04:56:01.971Z,7.47
2023-05-11T04:58:28.740Z,7.00
2023-05-11T05:00:55.538Z,7.67
2023-05-11T05:03:22.460Z,5.37
2023-05-11T05:05:52.137Z,8.50
2023-05-11T05:08:18.960Z,7.63
2023-05-11T05:10:47.542Z,9.57
2023-05-11T05:13:16.811Z,8.03
2023-05-11T05:15:44.097Z,9.17
2023-05-11T05:18:10.981Z,7.67
2023-05-11T05:20:37.779Z,7.67
2023-05-11T05:23:04.560Z,7.73
2023-05-11T05:25:31.581Z,8.53
2023-05-11T05:27:58.458Z,9.37
2023-05-11T05:30:25.248Z,6.57
2023-05-11T05:32:52.117Z,8.60
2023-05-11T05:35:19.009Z,9.60
2023-05-11T05:37:45.847Z,7.97
2023-05-11T05:40:12.826Z,8.37
2023-05-11T05:42:39.693Z,7.80
2023-05-11T05:45:06.964Z,8.60
2023-05-11T05:47:33.735Z,9.90
2023-05-11T05:50:00.538Z,7.33
2023-05-11T05:52:27.378Z,9.00
2023-05-11T05:54:54.132Z,9.30
2023-05-11T05:57:21.017Z,8.60
2023-05-11T05:59:47.730Z,8.67
2023-05-11T06:02:14.696Z,7.40
2023-05-11T06:04:42.252Z,11.07
2023-05-11T06:07:09.200Z,13.37
2023-05-11T06:09:38.565Z,7.13
2023-05-11T06:12:06.460Z,8.50
2023-05-11T06:14:33.297Z,7.93
2023-05-11T06:17:00.054Z,7.63
2023-05-11T06:19:26.842Z,7.73
2023-05-11T06:21:53.608Z,10.67
2023-05-11T06:24:20.450Z,6.97
2023-05-11T06:26:47.304Z,6.53
2023-05-11T06:29:14.088Z,10.00
2023-05-11T06:31:41.255Z,10.00
2023-05-11T06:34:09.389Z,8.07
2023-05-11T06:36:36.224Z,6.77
2023-05-11T06:39:03.299Z,9.40
2023-05-11T06:41:30.104Z,13.37
2023-05-11T06:43:56.840Z,8.17
2023-05-11T06:46:23.772Z,10.53
2023-05-11T06:48:50.513Z,6.13
2023-05-11T06:51:17.766Z,8.57
2023-05-11T06:53:44.805Z,7.80
2023-05-11T06:56:11.645Z,8.50
2023-05-11T06:58:38.683Z,9.07
2023-05-11T07:01:07.994Z,6.80
2023-05-11T07:03:35.438Z,9.83
2023-05-11T07:06:02.592Z,4.93
2023-05-11T07:08:29.791Z,7.93
2023-05-11T07:10:56.628Z,7.53
2023-05-11T07:13:23.509Z,9.07
2023-05-11T07:15:50.433Z,8.53
2023-05-11T07:18:17.238Z,6.70
2023-05-11T07:20:46.861Z,9.40
2023-05-11T07:23:13.728Z,6.77
2023-05-11T07:25:40.466Z,6.20
2023-05-11T07:28:07.262Z,6.67
2023-05-11T07:30:34.176Z,5.97
2023-05-11T07:33:01.063Z,7.37
2023-05-11T07:35:27.943Z,7.37
2023-05-11T07:37:54.884Z,10.33
2023-05-11T07:40:21.909Z,7.67
2023-05-11T07:42:48.758Z,7.57
2023-05-11T07:45:15.550Z,10.83
2023-05-11T07:47:42.709Z,5.40
2023-05-11T07:50:09.827Z,7.13
2023-05-11T07:52:36.656Z,8.93
2023-05-11T07:55:03.644Z,8.43
2023-05-11T07:57:30.455Z,6.97
2023-05-11T07:59:57.272Z,5.70
2023-05-11T08:02:24.441Z,6.20
2023-05-11T08:04:51.340Z,7.67
2023-05-11T08:07:18.166Z,7.50
2023-05-11T08:09:45.005Z,5.63
2023-05-11T08:12:11.910Z,6.90
2023-05-11T08:14:38.761Z,5.77
2023-05-11T08:17:06.377Z,7.33
2023-05-11T08:19:33.254Z,7.70
2023-05-11T08:22:01.341Z,5.90
2023-05-11T08:24:28.485Z,8.97
2023-05-11T08:26:55.687Z,4.87
2023-05-11T08:29:22.503Z,8.43
2023-05-11T08:31:50.376Z,6.47
2023-05-11T08:34:20.082Z,5.50
2023-05-11T08:36:47.800Z,5.90
2023-05-11T08:39:21.569Z,3.90
2023-05-11T08:41:59.820Z,5.37
2023-05-11T08:44:27.767Z,6.07
2023-05-11T08:47:08.661Z,4.80
2023-05-11T08:49:43.592Z,3.73
2023-05-11T08:52:12.569Z,7.33
2023-05-11T08:54:39.424Z,6.10
2023-05-11T08:57:07.187Z,6.83
2023-05-11T08:59:34.389Z,7.30
2023-05-11T09:02:02.322Z,5.77
2023-05-11T09:04:29.985Z,3.43
2023-05-11T09:06:57.666Z,4.70
2023-05-11T09:09:24.599Z,5.80
2023-05-11T09:11:53.198Z,4.37
2023-05-11T09:14:20.053Z,4.20
2023-05-11T09:16:53.836Z,4.17
2023-05-11T09:19:21.078Z,5.20
2023-05-11T09:21:48.127Z,6.17
2023-05-11T09:24:14.894Z,6.40
2023-05-11T09:26:41.682Z,5.30
2023-05-11T09:29:08.807Z,6.07
2023-05-11T09:31:36.798Z,2.50
2023-05-11T09:34:23.374Z,3.30
2023-05-11T09:36:52.869Z,7.23
2023-05-11T09:39:44.106Z,3.27
2023-05-11T09:42:24.541Z,2.53
2023-05-11T09:44:52.849Z,5.53
2023-05-11T09:47:22.520Z,3.27
2023-05-11T09:49:49.567Z,3.27
2023-05-11T09:52:18.664Z,3.77
2023-05-11T09:54:48.267Z,6.17
2023-05-11T09:57:29.877Z,4.47
2023-05-11T09:59:58.565Z,3.70
2023-05-11T10:02:30.573Z,3.90
2023-05-11T10:04:59.652Z,3.67
2023-05-11T10:07:27.495Z,4.10
2023-05-11T10:09:56.457Z,4.53
2023-05-11T10:12:25.651Z,1.77
2023-05-11T10:14:58.667Z,4.97
2023-05-11T10:17:25.987Z,2.67
2023-05-11T10:19:56.334Z,6.10
2023-05-11T10:22:25.264Z,4.67
2023-05-11T10:24:52.192Z,3.43
2023-05-11T10:27:20.172Z,2.90
2023-05-11T10:29:48.107Z,5.33
2023-05-11T10:32:17.387Z,4.70
2023-05-11T10:34:50.586Z,2.93
2023-05-11T10:37:17.784Z,3.93
2023-05-11T10:39:48.426Z,2.73
2023-05-11T10:42:40.805Z,3.70
2023-05-11T10:45:49.586Z,2.37
2023-05-11T10:48:37.553Z,4.27
2023-05-11T10:51:22.474Z,2.80
2023-05-11T10:53:53.710Z,2.23
2023-05-11T10:56:34.396Z,4.50
2023-05-11T10:59:20.646Z,1.80
2023-05-11T11:01:50.642Z,3.40
2023-05-11T11:04:18.047Z,2.37
2023-05-11T11:06:45.002Z,2.07
2023-05-11T11:09:16.539Z,1.93
2023-05-11T11:11:48.152Z,4.30
2023-05-11T11:14:17.226Z,3.60
2023-05-11T11:17:16.457Z,2.53
2023-05-11T11:19:43.607Z,1.67
2023-05-11T11:22:35.560Z,3.03
2023-05-11T11:25:09.750Z,4.37
2023-05-11T11:27:45.352Z,5.10
2023-05-11T11:30:21.436Z,3.10
2023-05-11T11:32:50.512Z,3.17
2023-05-11T11:35:39.311Z,2.20
2023-05-11T11:38:10.633Z,4.73
2023-05-11T11:40:47.170Z,2.80
2023-05-11T11:43:20.348Z,4.37
2023-05-11T11:45:53.192Z,4.53
2023-05-11T11:48:29.530Z,2.30
2023-05-11T11:51:04.244Z,2.43
2023-05-11T11:53:41.036Z,1.60
2023-05-11T11:56:28.527Z,3.47
2023-05-11T11:59:03.942Z,3.97
2023-05-11T12:01:36.540Z,2.20
2023-05-11T12:04:20.234Z,2.30
2023-05-11T12:06:58.691Z,2.50
2023-05-11T12:09:26.831Z,2.80
2023-05-11T12:11:54.077Z,2.80
2023-05-11T12:14:22.064Z,1.60
2023-05-11T12:17:08.246Z,1.60
2023-05-11T12:19:36.359Z,2.13
2023-05-11T12:22:03.357Z,2.97
2023-05-11T12:24:30.343Z,2.60
2023-05-11T12:26:57.580Z,3.27
2023-05-11T12:29:24.879Z,3.53
2023-05-11T12:31:52.223Z,2.07
2023-05-11T12:34:24.017Z,2.93
2023-05-11T12:36:52.928Z,3.07
2023-05-11T12:39:22.214Z,2.67
2023-05-11T12:41:50.403Z,2.43
2023-05-11T12:44:18.720Z,2.50
2023-05-11T12:46:47.844Z,2.10
2023-05-11T12:49:24.575Z,3.27
2023-05-11T12:52:01.665Z,2.10
2023-05-11T12:54:33.942Z,1.20
2023-05-11T12:57:02.681Z,4.17
2023-05-11T12:59:40.554Z,1.70
2023-05-11T13:02:09.841Z,2.23
2023-05-11T13:04:37.538Z,3.40
2023-05-11T13:07:05.003Z,3.60
2023-05-11T13:09:32.238Z,1.93
2023-05-11T13:12:09.400Z,2.73
2023-05-11T13:14:36.411Z,2.10
2023-05-11T13:17:03.710Z,2.93
2023-05-11T13:19:32.205Z,1.50
2023-05-11T13:21:59.018Z,1.27
2023-05-11T13:24:26.375Z,4.00
2023-05-11T13:26:54.696Z,1.80
2023-05-11T13:29:22.453Z,1.40
2023-05-11T13:31:51.928Z,2.53
2023-05-11T13:34:20.205Z,2.30
2023-05-11T13:36:47.661Z,2.50
2023-05-11T13:39:14.425Z,3.10
2023-05-11T13:41:41.168Z,1.87
2023-05-11T13:44:08.013Z,2.13
2023-05-11T13:46:35.758Z,2.90
2023-05-11T13:49:03.836Z,2.08
2023-05-11T13:51:31.259Z,3.97
2023-05-11T13:53:59.365Z,2.97
2023-05-11T13:56:26.226Z,2.60
2023-05-11T13:58:53.094Z,6.17
2023-05-11T14:01:22.966Z,2.50
2023-05-11T14:03:53.916Z,3.83
2023-05-11T14:06:24.940Z,1.50
2023-05-11T14:08:52.508Z,3.23
2023-05-11T14:11:19.314Z,2.97
2023-05-11T14:13:46.197Z,1.80
2023-05-11T14:16:13.168Z,4.50
2023-05-11T14:18:40.401Z,2.57
2023-05-11T14:21:07.316Z,3.83
2023-05-11T14:23:34.121Z,2.23
2023-05-11T14:26:00.919Z,2.37
2023-05-11T14:28:28.002Z,2.60
2023-05-11T14:30:55.218Z,2.03
2023-05-11T14:33:22.280Z,2.43
2023-05-11T14:35:50.096Z,3.07
2023-05-11T14:38:17.552Z,2.07
2023-05-11T14:40:44.411Z,1.50
2023-05-11T14:43:11.290Z,3.73
2023-05-11T14:45:38.205Z,1.70
2023-05-11T14:48:05.485Z,3.63
2023-05-11T14:50:32.422Z,2.50
2023-05-11T14:52:59.968Z,3.03
2023-05-11T14:55:26.794Z,3.00
2023-05-11T14:57:53.588Z,2.60
2023-05-11T15:00:20.569Z,3.27
2023-05-11T15:02:47.580Z,2.00
2023-05-11T15:05:14.533Z,2.20
2023-05-11T15:07:41.225Z,2.20
2023-05-11T15:10:08.227Z,1.37
2023-05-11T15:12:35.103Z,1.83
2023-05-11T15:15:02.080Z,1.87
2023-05-11T15:17:28.966Z,4.57
2023-05-11T15:19:55.728Z,3.67
2023-05-11T15:22:22.786Z,1.87
2023-05-11T15:24:49.557Z,2.87
2023-05-11T15:27:16.395Z,1.87
2023-05-11T15:29:43.596Z,1.50
2023-05-11T15:32:13.992Z,1.27
2023-05-11T15:34:57.971Z,3.07
2023-05-11T15:37:26.515Z,1.83
2023-05-11T15:39:53.435Z,2.20
2023-05-11T15:42:20.286Z,0.60
2023-05-11T15:44:47.353Z,4.00
2023-05-11T15:47:14.134Z,2.03
2023-05-11T15:49:40.908Z,2.00
2023-05-11T15:52:07.876Z,2.10
2023-05-11T15:54:36.135Z,1.40
2023-05-11T15:57:03.191Z,1.07
2023-05-11T15:59:32.604Z,1.80
2023-05-11T16:01:59.616Z,1.80
2023-05-11T16:04:26.855Z,3.13
2023-05-11T16:06:53.710Z,2.00
2023-05-11T16:09:20.488Z,2.47
2023-05-11T16:11:47.395Z,4.97
2023-05-11T16:14:14.176Z,2.23
2023-05-11T16:16:41.746Z,2.60
2023-05-11T16:19:08.625Z,3.93
2023-05-11T16:21:35.437Z,1.70
2023-05-11T16:24:02.238Z,2.10
2023-05-11T16:26:29.598Z,2.73
2023-05-11T16:28:56.397Z,1.53
2023-05-11T16:31:23.418Z,2.17
2023-05-11T16:33:50.317Z,3.10
2023-05-11T16:36:17.434Z,2.57
2023-05-11T16:38:44.239Z,2.23
2023-05-11T16:41:11.567Z,2.53
2023-05-11T16:43:41.754Z,2.77
2023-05-11T16:46:12.201Z,2.97
2023-05-11T16:48:39.042Z,4.83
2023-05-11T16:51:05.906Z,2.97
2023-05-11T16:53:33.668Z,3.17
2023-05-11T16:56:00.722Z,3.03
2023-05-11T16:58:28.060Z,2.93
2023-05-11T17:00:54.859Z,1.53
2023-05-11T17:03:21.771Z,1.47
2023-05-11T17:05:48.760Z,1.20
2023-05-11T17:08:15.609Z,2.57
2023-05-11T17:10:42.456Z,2.23
2023-05-11T17:13:09.196Z,1.37
2023-05-11T17:15:35.984Z,1.63
2023-05-11T17:18:03.912Z,3.23
2023-05-11T17:20:30.977Z,2.77
2023-05-11T17:22:58.065Z,2.60
2023-05-11T17:25:25.025Z,2.40
2023-05-11T17:27:51.852Z,1.83
2023-05-11T17:30:18.956Z,3.00
2023-05-11T17:32:46.454Z,2.10
2023-05-11T17:35:13.781Z,2.53
2023-05-11T17:37:40.570Z,2.80
2023-05-11T17:40:07.970Z,1.83
2023-05-11T17:42:34.897Z,1.83
2023-05-11T17:45:01.738Z,2.43
2023-05-11T17:47:28.945Z,1.47
2023-05-11T17:49:55.873Z,3.00
2023-05-11T17:52:24.603Z,2.10
2023-05-11T17:54:51.663Z,1.40
2023-05-11T17:57:18.380Z,1.83
2023-05-11T17:59:47.214Z,1.70
2023-05-11T18:02:14.102Z,3.03
2023-05-11T18:04:42.106Z,2.83
2023-05-11T18:07:09.461Z,1.50
2023-05-11T18:09:36.298Z,2.83
2023-05-11T18:12:04.376Z,1.40
2023-05-11T18:14:31.361Z,2.50
2023-05-11T18:16:58.100Z,1.73
2023-05-11T18:19:25.004Z,1.50
2023-05-11T18:21:52.357Z,1.57
2023-05-11T18:24:19.416Z,2.13
2023-05-11T18:26:46.508Z,3.07
2023-05-11T18:29:13.542Z,2.70
2023-05-11T18:31:40.578Z,1.70
2023-05-11T18:34:07.450Z,2.37
2023-05-11T18:36:34.580Z,2.23
2023-05-11T18:39:01.404Z,2.97
2023-05-11T18:41:28.818Z,1.70
2023-05-11T18:43:55.685Z,3.13
2023-05-11T18:46:22.694Z,1.87
2023-05-11T18:48:53.540Z,1.87
2023-05-11T18:51:22.861Z,1.47
2023-05-11T18:53:50.347Z,1.53
2023-05-11T18:56:17.479Z,1.60
2023-05-11T18:58:45.016Z,2.07
2023-05-11T19:01:12.112Z,2.33
2023-05-11T19:03:39.182Z,2.63
2023-05-11T19:06:07.592Z,1.50
2023-05-11T19:08:34.581Z,2.40
2023-05-11T19:11:09.523Z,2.30
2023-05-11T19:13:36.939Z,1.60
2023-05-11T19:16:04.759Z,2.27
2023-05-11T19:18:35.279Z,2.50
2023-05-11T19:21:03.095Z,1.63
2023-05-11T19:23:30.026Z,2.87
2023-05-11T19:25:56.768Z,1.60
2023-05-11T19:28:23.632Z,2.70
2023-05-11T19:30:58.905Z,2.90
2023-05-11T19:33:25.884Z,2.50
2023-05-11T19:35:52.619Z,1.30
2023-05-11T19:38:19.401Z,1.50
2023-05-11T19:40:47.349Z,1.20
2023-05-11T19:43:14.447Z,1.93
2023-05-11T19:45:43.493Z,1.77
2023-05-11T19:48:10.450Z,2.33
2023-05-11T19:50:37.201Z,1.30
2023-05-11T19:53:03.958Z,2.60
2023-05-11T19:55:31.100Z,1.70
2023-05-11T19:57:57.926Z,3.27
2023-05-11T20:00:25.467Z,3.47
2023-05-11T20:02:53.177Z,2.13
2023-05-11T20:05:20.351Z,2.60
2023-05-11T20:07:48.383Z,4.07
2023-05-11T20:10:15.256Z,2.03
2023-05-11T20:12:41.938Z,2.43
2023-05-11T20:15:09.774Z,2.93
2023-05-11T20:17:37.218Z,2.10
2023-05-11T20:20:04.294Z,2.80
2023-05-11T20:22:32.273Z,1.27
2023-05-11T20:24:59.048Z,2.07
2023-05-11T20:27:25.910Z,2.07
2023-05-11T20:29:52.755Z,1.60
2023-05-11T20:32:19.631Z,1.90
2023-05-11T20:34:46.401Z,1.60
2023-05-11T20:37:14.182Z,1.80
2023-05-11T20:39:41.137Z,3.00
2023-05-11T20:42:08.684Z,1.60
2023-05-11T20:44:35.490Z,1.63
2023-05-11T20:47:02.320Z,2.13
2023-05-11T20:49:38.331Z,1.53
2023-05-11T20:52:07.458Z,2.70
2023-05-11T20:54:35.747Z,1.87
2023-05-11T20:57:05.327Z,2.63
2023-05-11T21:02:02.512Z,2.80
2023-05-11T21:04:31.204Z,1.50
2023-05-11T21:06:57.982Z,2.60
2023-05-11T21:09:25.516Z,3.33
2023-05-11T21:11:52.477Z,1.73
2023-05-11T21:14:19.334Z,2.50
2023-05-11T21:16:46.395Z,1.90
2023-05-11T21:19:13.240Z,2.17
2023-05-11T21:21:40.004Z,2.57
2023-05-11T21:24:06.852Z,1.87
2023-05-11T21:26:33.595Z,1.70
2023-05-11T21:29:00.472Z,3.17
2023-05-11T21:31:27.405Z,2.90
2023-05-11T21:33:54.508Z,1.70
2023-05-11T21:36:22.530Z,2.67
2023-05-11T21:38:49.379Z,1.97
2023-05-11T21:41:16.925Z,3.17
2023-05-11T21:43:44.167Z,3.07
2023-05-11T21:46:11.031Z,2.80
2023-05-11T21:48:37.791Z,3.27
2023-05-11T21:51:04.770Z,1.57
2023-05-11T21:53:31.539Z,1.83
2023-05-11T21:55:58.335Z,1.60
2023-05-11T21:58:25.217Z,2.97
2023-05-11T22:00:52.117Z,2.63
2023-05-11T22:03:19.383Z,2.10
2023-05-11T22:05:46.470Z,3.33
2023-05-11T22:08:15.267Z,3.77
2023-05-11T22:10:43.431Z,2.63
2023-05-11T22:13:10.523Z,3.60
2023-05-11T22:15:37.436Z,4.10
2023-05-11T22:18:05.138Z,3.00
2023-05-11T22:20:32.241Z,3.20
2023-05-11T22:22:59.542Z,4.67
2023-05-11T22:25:28.178Z,3.30
2023-05-11T22:27:54.941Z,5.03
2023-05-11T22:30:21.855Z,5.97
2023-05-11T22:32:48.887Z,3.27
2023-05-11T22:35:16.924Z,3.83
2023-05-11T22:37:43.882Z,5.17
2023-05-11T22:40:11.255Z,5.37
2023-05-11T22:42:38.206Z,5.77
2023-05-11T22:45:06.099Z,5.63
2023-05-11T22:47:32.983Z,8.57
2023-05-11T22:50:00.479Z,10.23
2023-05-11T22:52:27.418Z,14.43
2023-05-11T22:54:55.178Z,19.07
2023-05-11T22:57:24.135Z,18.43
2023-05-11T22:59:51.094Z,23.30
2023-05-11T23:02:18.311Z,30.03
2023-05-11T23:04:52.820Z,35.50
2023-05-11T23:07:20.032Z,54.23
2023-05-11T23:09:46.938Z,36.33
2023-05-11T23:12:13.707Z,45.30
2023-05-11T23:14:40.556Z,60.03
2023-05-11T23:17:07.412Z,36.07
2023-05-11T23:19:34.479Z,58.67
2023-05-11T23:22:01.703Z,67.37
2023-05-11T23:24:28.984Z,65.57
2023-05-11T23:26:55.961Z,45.40
2023-05-11T23:29:22.943Z,42.17
2023-05-11T23:31:51.160Z,43.50
2023-05-11T23:34:18.485Z,44.30
2023-05-11T23:36:45.196Z,54.30
2023-05-11T23:39:11.992Z,62.30
2023-05-11T23:41:38.927Z,58.17
2023-05-11T23:44:05.860Z,47.00
2023-05-11T23:46:32.673Z,54.97
2023-05-11T23:48:59.546Z,61.87
2023-05-11T23:51:26.321Z,61.47
2023-05-11T23:53:53.171Z,61.30
2023-05-11T23:56:19.973Z,87.50
2023-05-11T23:58:46.807Z,67.23
